ADDS METAR Data INFO
IDs: Format: Raw Decoded Include TAF

Data at: 0027 UTC 24 May 2017

EDDV 240020Z 28008KT CAVOK 11/07 Q1020

TAF EDDV 232300Z 2400/2424 29010KT 9999 FEW035
  BECMG 2406/2408 30015KT
  TEMPO 2408/2415 30015G25KT
  BECMG 2416/2419 29007KT



Page loaded:  00:27 UTC  |   05:27 PM Pacific  |   06:27 PM Mountain  |   07:27 PM Central  |   08:27 PM Eastern

 

ADVISORIES

FORECASTS

FORECASTS

OBSERVATIONS

USER TOOLS

ABOUT US